sensor_id;sensor_type;location;lat;lon;timestamp;P1;durP1;ratioP1;P2;durP2;ratioP2
21634;SDS011;10979;48.306;9.830;2023-02-15T00:01:13;0.40;;;0.40;;
21634;SDS011;10979;48.306;9.830;2023-02-15T00:03:39;0.40;;;0.40;;
21634;SDS011;10979;48.306;9.830;2023-02-15T00:06:05;0.40;;;0.40;;
21634;SDS011;10979;48.306;9.830;2023-02-15T00:08:30;0.40;;;0.40;;
21634;SDS011;10979;48.306;9.830;2023-02-15T00:11:30;0.50;;;0.50;;
21634;SDS011;10979;48.306;9.830;2023-02-15T00:14:08;0.40;;;0.40;;
21634;SDS011;10979;48.306;9.830;2023-02-15T00:16:39;0.50;;;0.50;;
21634;SDS011;10979;48.306;9.830;2023-02-15T00:19:06;0.50;;;0.50;;
21634;SDS011;10979;48.306;9.830;2023-02-15T00:21:33;0.47;;;0.47;;
21634;SDS011;10979;48.306;9.830;2023-02-15T00:24:00;0.40;;;0.40;;
21634;SDS011;10979;48.306;9.830;2023-02-15T00:26:28;0.40;;;0.40;;
21634;SDS011;10979;48.306;9.830;2023-02-15T00:28:54;0.47;;;0.47;;
21634;SDS011;10979;48.306;9.830;2023-02-15T00:31:20;0.40;;;0.40;;
21634;SDS011;10979;48.306;9.830;2023-02-15T00:33:46;0.40;;;0.40;;
21634;SDS011;10979;48.306;9.830;2023-02-15T00:36:12;0.40;;;0.40;;
21634;SDS011;10979;48.306;9.830;2023-02-15T00:38:38;0.40;;;0.40;;
21634;SDS011;10979;48.306;9.830;2023-02-15T00:41:04;0.47;;;0.47;;
21634;SDS011;10979;48.306;9.830;2023-02-15T00:43:32;0.40;;;0.40;;
21634;SDS011;10979;48.306;9.830;2023-02-15T00:45:58;0.40;;;0.40;;
21634;SDS011;10979;48.306;9.830;2023-02-15T00:48:24;0.40;;;0.40;;
21634;SDS011;10979;48.306;9.830;2023-02-15T00:50:51;0.45;;;0.45;;
21634;SDS011;10979;48.306;9.830;2023-02-15T00:53:18;0.40;;;0.40;;
21634;SDS011;10979;48.306;9.830;2023-02-15T00:55:44;0.40;;;0.40;;
21634;SDS011;10979;48.306;9.830;2023-02-15T00:58:10;0.50;;;0.50;;
21634;SDS011;10979;48.306;9.830;2023-02-15T01:00:37;0.50;;;0.50;;
21634;SDS011;10979;48.306;9.830;2023-02-15T01:03:03;0.40;;;0.40;;
21634;SDS011;10979;48.306;9.830;2023-02-15T01:05:29;0.40;;;0.40;;
21634;SDS011;10979;48.306;9.830;2023-02-15T01:07:56;0.40;;;0.40;;
21634;SDS011;10979;48.306;9.830;2023-02-15T01:10:22;0.40;;;0.40;;
21634;SDS011;10979;48.306;9.830;2023-02-15T01:12:49;0.50;;;0.50;;
21634;SDS011;10979;48.306;9.830;2023-02-15T01:15:15;0.50;;;0.50;;
21634;SDS011;10979;48.306;9.830;2023-02-15T01:17:41;0.40;;;0.40;;
21634;SDS011;10979;48.306;9.830;2023-02-15T01:20:09;0.50;;;0.50;;
21634;SDS011;10979;48.306;9.830;2023-02-15T01:22:35;0.40;;;0.40;;
21634;SDS011;10979;48.306;9.830;2023-02-15T01:25:00;0.50;;;0.50;;
21634;SDS011;10979;48.306;9.830;2023-02-15T01:27:26;0.50;;;0.50;;
21634;SDS011;10979;48.306;9.830;2023-02-15T01:29:51;0.50;;;0.50;;
21634;SDS011;10979;48.306;9.830;2023-02-15T01:32:17;0.40;;;0.40;;
21634;SDS011;10979;48.306;9.830;2023-02-15T01:34:42;0.50;;;0.50;;
21634;SDS011;10979;48.306;9.830;2023-02-15T01:37:08;0.50;;;0.50;;
21634;SDS011;10979;48.306;9.830;2023-02-15T01:39:33;0.40;;;0.40;;
21634;SDS011;10979;48.306;9.830;2023-02-15T01:41:59;0.40;;;0.40;;
21634;SDS011;10979;48.306;9.830;2023-02-15T01:47:10;0.40;;;0.40;;
21634;SDS011;10979;48.306;9.830;2023-02-15T01:49:38;0.40;;;0.40;;
21634;SDS011;10979;48.306;9.830;2023-02-15T01:52:06;0.40;;;0.40;;
21634;SDS011;10979;48.306;9.830;2023-02-15T01:54:34;0.50;;;0.50;;
21634;SDS011;10979;48.306;9.830;2023-02-15T01:57:03;0.50;;;0.50;;
21634;SDS011;10979;48.306;9.830;2023-02-15T01:59:33;0.40;;;0.40;;
21634;SDS011;10979;48.306;9.830;2023-02-15T02:02:00;0.40;;;0.40;;
21634;SDS011;10979;48.306;9.830;2023-02-15T02:04:31;0.40;;;0.40;;
21634;SDS011;10979;48.306;9.830;2023-02-15T02:07:08;0.40;;;0.40;;
21634;SDS011;10979;48.306;9.830;2023-02-15T02:09:37;0.40;;;0.40;;
21634;SDS011;10979;48.306;9.830;2023-02-15T02:12:03;0.40;;;0.40;;
21634;SDS011;10979;48.306;9.830;2023-02-15T02:14:28;0.47;;;0.47;;
21634;SDS011;10979;48.306;9.830;2023-02-15T02:17:09;0.40;;;0.40;;
21634;SDS011;10979;48.306;9.830;2023-02-15T02:19:54;0.40;;;0.40;;
21634;SDS011;10979;48.306;9.830;2023-02-15T02:22:55;0.50;;;0.50;;
21634;SDS011;10979;48.306;9.830;2023-02-15T02:34:44;0.40;;;0.40;;
21634;SDS011;10979;48.306;9.830;2023-02-15T02:37:33;0.47;;;0.47;;
21634;SDS011;10979;48.306;9.830;2023-02-15T02:40:19;0.40;;;0.40;;
21634;SDS011;10979;48.306;9.830;2023-02-15T02:43:18;0.50;;;0.50;;
21634;SDS011;10979;48.306;9.830;2023-02-15T02:46:31;0.50;;;0.50;;
21634;SDS011;10979;48.306;9.830;2023-02-15T02:48:42;0.40;;;0.40;;
21634;SDS011;10979;48.306;9.830;2023-02-15T02:51:08;0.50;;;0.50;;
21634;SDS011;10979;48.306;9.830;2023-02-15T02:53:34;0.40;;;0.40;;
21634;SDS011;10979;48.306;9.830;2023-02-15T02:56:05;0.40;;;0.40;;
21634;SDS011;10979;48.306;9.830;2023-02-15T02:58:42;0.50;;;0.50;;
21634;SDS011;10979;48.306;9.830;2023-02-15T03:01:27;0.40;;;0.40;;
21634;SDS011;10979;48.306;9.830;2023-02-15T03:04:05;0.50;;;0.50;;
21634;SDS011;10979;48.306;9.830;2023-02-15T03:06:44;0.40;;;0.40;;
21634;SDS011;10979;48.306;9.830;2023-02-15T03:09:17;0.50;;;0.50;;
21634;SDS011;10979;48.306;9.830;2023-02-15T03:11:49;0.50;;;0.50;;
21634;SDS011;10979;48.306;9.830;2023-02-15T03:14:15;0.40;;;0.40;;
21634;SDS011;10979;48.306;9.830;2023-02-15T03:16:43;0.47;;;0.47;;
21634;SDS011;10979;48.306;9.830;2023-02-15T03:19:13;0.40;;;0.40;;
21634;SDS011;10979;48.306;9.830;2023-02-15T03:22:00;0.50;;;0.50;;
21634;SDS011;10979;48.306;9.830;2023-02-15T03:24:44;0.43;;;0.43;;
21634;SDS011;10979;48.306;9.830;2023-02-15T03:27:13;0.40;;;0.40;;
21634;SDS011;10979;48.306;9.830;2023-02-15T03:29:43;0.50;;;0.50;;
21634;SDS011;10979;48.306;9.830;2023-02-15T03:32:15;0.40;;;0.40;;
21634;SDS011;10979;48.306;9.830;2023-02-15T03:34:41;0.40;;;0.40;;
21634;SDS011;10979;48.306;9.830;2023-02-15T03:37:10;0.50;;;0.50;;
21634;SDS011;10979;48.306;9.830;2023-02-15T03:39:52;0.50;;;0.50;;
21634;SDS011;10979;48.306;9.830;2023-02-15T03:42:41;0.40;;;0.40;;
21634;SDS011;10979;48.306;9.830;2023-02-15T03:45:09;0.40;;;0.40;;
21634;SDS011;10979;48.306;9.830;2023-02-15T03:47:47;0.40;;;0.40;;
21634;SDS011;10979;48.306;9.830;2023-02-15T03:50:18;0.40;;;0.40;;
21634;SDS011;10979;48.306;9.830;2023-02-15T03:53:06;0.40;;;0.40;;
21634;SDS011;10979;48.306;9.830;2023-02-15T03:55:34;0.40;;;0.40;;
21634;SDS011;10979;48.306;9.830;2023-02-15T03:58:00;0.40;;;0.40;;
21634;SDS011;10979;48.306;9.830;2023-02-15T04:00:56;0.40;;;0.40;;
21634;SDS011;10979;48.306;9.830;2023-02-15T04:03:49;0.40;;;0.40;;
21634;SDS011;10979;48.306;9.830;2023-02-15T04:06:20;0.50;;;0.50;;
21634;SDS011;10979;48.306;9.830;2023-02-15T04:08:46;0.50;;;0.50;;
21634;SDS011;10979;48.306;9.830;2023-02-15T04:11:30;0.40;;;0.40;;
21634;SDS011;10979;48.306;9.830;2023-02-15T04:13:55;0.40;;;0.40;;
21634;SDS011;10979;48.306;9.830;2023-02-15T04:16:23;0.40;;;0.40;;
21634;SDS011;10979;48.306;9.830;2023-02-15T04:18:49;0.50;;;0.50;;
21634;SDS011;10979;48.306;9.830;2023-02-15T04:21:33;0.50;;;0.50;;
21634;SDS011;10979;48.306;9.830;2023-02-15T04:24:17;0.43;;;0.43;;
21634;SDS011;10979;48.306;9.830;2023-02-15T04:27:01;0.40;;;0.40;;
21634;SDS011;10979;48.306;9.830;2023-02-15T04:29:29;0.40;;;0.40;;
21634;SDS011;10979;48.306;9.830;2023-02-15T04:31:55;0.40;;;0.40;;
21634;SDS011;10979;48.306;9.830;2023-02-15T04:34:22;0.40;;;0.40;;
21634;SDS011;10979;48.306;9.830;2023-02-15T04:36:48;0.40;;;0.40;;
21634;SDS011;10979;48.306;9.830;2023-02-15T04:39:15;0.40;;;0.40;;
21634;SDS011;10979;48.306;9.830;2023-02-15T04:41:42;0.40;;;0.40;;
21634;SDS011;10979;48.306;9.830;2023-02-15T04:44:07;0.40;;;0.40;;
21634;SDS011;10979;48.306;9.830;2023-02-15T04:46:33;0.40;;;0.40;;
21634;SDS011;10979;48.306;9.830;2023-02-15T04:48:58;0.40;;;0.40;;
21634;SDS011;10979;48.306;9.830;2023-02-15T04:51:24;0.40;;;0.40;;
21634;SDS011;10979;48.306;9.830;2023-02-15T04:53:50;0.45;;;0.45;;
21634;SDS011;10979;48.306;9.830;2023-02-15T04:56:17;0.40;;;0.40;;
21634;SDS011;10979;48.306;9.830;2023-02-15T04:58:43;0.40;;;0.40;;
21634;SDS011;10979;48.306;9.830;2023-02-15T05:01:09;0.50;;;0.50;;
21634;SDS011;10979;48.306;9.830;2023-02-15T05:03:35;0.40;;;0.40;;
21634;SDS011;10979;48.306;9.830;2023-02-15T05:06:01;0.40;;;0.40;;
21634;SDS011;10979;48.306;9.830;2023-02-15T05:08:27;0.40;;;0.40;;
21634;SDS011;10979;48.306;9.830;2023-02-15T05:10:52;0.50;;;0.50;;
21634;SDS011;10979;48.306;9.830;2023-02-15T05:13:18;0.50;;;0.50;;
21634;SDS011;10979;48.306;9.830;2023-02-15T05:15:47;0.40;;;0.40;;
21634;SDS011;10979;48.306;9.830;2023-02-15T05:18:14;0.40;;;0.40;;
21634;SDS011;10979;48.306;9.830;2023-02-15T05:20:40;0.45;;;0.45;;
21634;SDS011;10979;48.306;9.830;2023-02-15T05:23:06;0.40;;;0.40;;
21634;SDS011;10979;48.306;9.830;2023-02-15T05:25:32;0.43;;;0.43;;
21634;SDS011;10979;48.306;9.830;2023-02-15T05:28:16;0.40;;;0.40;;
21634;SDS011;10979;48.306;9.830;2023-02-15T05:30:45;0.40;;;0.40;;
21634;SDS011;10979;48.306;9.830;2023-02-15T05:33:25;0.50;;;0.50;;
21634;SDS011;10979;48.306;9.830;2023-02-15T05:35:51;0.40;;;0.40;;
21634;SDS011;10979;48.306;9.830;2023-02-15T05:38:16;0.40;;;0.40;;
21634;SDS011;10979;48.306;9.830;2023-02-15T05:40:42;0.40;;;0.40;;
21634;SDS011;10979;48.306;9.830;2023-02-15T05:43:08;0.40;;;0.40;;
21634;SDS011;10979;48.306;9.830;2023-02-15T05:45:33;0.40;;;0.40;;
21634;SDS011;10979;48.306;9.830;2023-02-15T05:47:59;0.50;;;0.50;;
21634;SDS011;10979;48.306;9.830;2023-02-15T05:50:24;0.50;;;0.50;;
21634;SDS011;10979;48.306;9.830;2023-02-15T05:52:50;0.40;;;0.40;;
21634;SDS011;10979;48.306;9.830;2023-02-15T05:55:16;0.40;;;0.40;;
21634;SDS011;10979;48.306;9.830;2023-02-15T05:57:42;0.40;;;0.40;;
21634;SDS011;10979;48.306;9.830;2023-02-15T06:00:07;0.50;;;0.50;;
21634;SDS011;10979;48.306;9.830;2023-02-15T06:02:37;0.40;;;0.40;;
21634;SDS011;10979;48.306;9.830;2023-02-15T06:05:04;0.40;;;0.40;;
21634;SDS011;10979;48.306;9.830;2023-02-15T06:07:31;0.50;;;0.50;;
21634;SDS011;10979;48.306;9.830;2023-02-15T06:09:56;0.50;;;0.50;;
21634;SDS011;10979;48.306;9.830;2023-02-15T06:12:22;0.40;;;0.40;;
21634;SDS011;10979;48.306;9.830;2023-02-15T06:14:48;0.40;;;0.40;;
21634;SDS011;10979;48.306;9.830;2023-02-15T06:17:14;0.50;;;0.50;;
21634;SDS011;10979;48.306;9.830;2023-02-15T06:19:39;0.43;;;0.43;;
21634;SDS011;10979;48.306;9.830;2023-02-15T06:22:05;0.50;;;0.50;;
21634;SDS011;10979;48.306;9.830;2023-02-15T06:24:31;0.40;;;0.40;;
21634;SDS011;10979;48.306;9.830;2023-02-15T06:26:57;0.45;;;0.45;;
21634;SDS011;10979;48.306;9.830;2023-02-15T06:29:22;0.50;;;0.50;;
21634;SDS011;10979;48.306;9.830;2023-02-15T06:31:48;0.50;;;0.50;;
21634;SDS011;10979;48.306;9.830;2023-02-15T06:34:13;0.50;;;0.50;;
21634;SDS011;10979;48.306;9.830;2023-02-15T06:36:39;0.50;;;0.50;;
21634;SDS011;10979;48.306;9.830;2023-02-15T06:39:05;0.50;;;0.50;;
21634;SDS011;10979;48.306;9.830;2023-02-15T06:41:31;0.50;;;0.50;;
21634;SDS011;10979;48.306;9.830;2023-02-15T06:43:56;0.47;;;0.47;;
21634;SDS011;10979;48.306;9.830;2023-02-15T06:46:22;0.50;;;0.50;;
21634;SDS011;10979;48.306;9.830;2023-02-15T06:48:48;0.40;;;0.40;;
21634;SDS011;10979;48.306;9.830;2023-02-15T06:51:13;0.50;;;0.50;;
21634;SDS011;10979;48.306;9.830;2023-02-15T06:53:39;0.40;;;0.40;;
21634;SDS011;10979;48.306;9.830;2023-02-15T06:56:07;0.47;;;0.47;;
21634;SDS011;10979;48.306;9.830;2023-02-15T06:58:37;0.40;;;0.40;;
21634;SDS011;10979;48.306;9.830;2023-02-15T07:01:06;0.50;;;0.50;;
21634;SDS011;10979;48.306;9.830;2023-02-15T07:03:33;0.43;;;0.43;;
21634;SDS011;10979;48.306;9.830;2023-02-15T07:06:00;0.50;;;0.50;;
21634;SDS011;10979;48.306;9.830;2023-02-15T07:08:27;0.50;;;0.50;;
21634;SDS011;10979;48.306;9.830;2023-02-15T07:10:54;0.50;;;0.50;;
21634;SDS011;10979;48.306;9.830;2023-02-15T07:13:40;0.40;;;0.40;;
21634;SDS011;10979;48.306;9.830;2023-02-15T07:16:07;0.40;;;0.40;;
21634;SDS011;10979;48.306;9.830;2023-02-15T07:18:33;0.40;;;0.40;;
21634;SDS011;10979;48.306;9.830;2023-02-15T07:20:59;0.40;;;0.40;;
21634;SDS011;10979;48.306;9.830;2023-02-15T07:23:24;0.50;;;0.50;;
21634;SDS011;10979;48.306;9.830;2023-02-15T07:25:56;0.40;;;0.40;;
21634;SDS011;10979;48.306;9.830;2023-02-15T07:28:25;0.50;;;0.50;;
21634;SDS011;10979;48.306;9.830;2023-02-15T07:30:51;0.40;;;0.40;;
21634;SDS011;10979;48.306;9.830;2023-02-15T07:33:17;0.50;;;0.50;;
21634;SDS011;10979;48.306;9.830;2023-02-15T07:35:55;0.40;;;0.40;;
21634;SDS011;10979;48.306;9.830;2023-02-15T07:38:27;0.40;;;0.40;;
21634;SDS011;10979;48.306;9.830;2023-02-15T07:40:59;0.40;;;0.40;;
21634;SDS011;10979;48.306;9.830;2023-02-15T07:43:26;0.50;;;0.50;;
21634;SDS011;10979;48.306;9.830;2023-02-15T07:45:53;0.40;;;0.40;;
21634;SDS011;10979;48.306;9.830;2023-02-15T07:48:18;0.40;;;0.40;;
21634;SDS011;10979;48.306;9.830;2023-02-15T07:50:45;0.45;;;0.45;;
21634;SDS011;10979;48.306;9.830;2023-02-15T07:53:11;0.40;;;0.40;;
21634;SDS011;10979;48.306;9.830;2023-02-15T07:55:36;0.40;;;0.40;;
21634;SDS011;10979;48.306;9.830;2023-02-15T07:58:02;0.50;;;0.50;;
21634;SDS011;10979;48.306;9.830;2023-02-15T08:00:27;0.40;;;0.40;;
21634;SDS011;10979;48.306;9.830;2023-02-15T08:02:55;0.50;;;0.50;;
21634;SDS011;10979;48.306;9.830;2023-02-15T08:05:39;0.50;;;0.50;;
21634;SDS011;10979;48.306;9.830;2023-02-15T08:08:06;0.40;;;0.40;;
21634;SDS011;10979;48.306;9.830;2023-02-15T08:10:33;0.40;;;0.40;;
21634;SDS011;10979;48.306;9.830;2023-02-15T08:13:18;0.40;;;0.40;;
21634;SDS011;10979;48.306;9.830;2023-02-15T08:15:48;0.40;;;0.40;;
21634;SDS011;10979;48.306;9.830;2023-02-15T08:20:41;0.50;;;0.50;;
21634;SDS011;10979;48.306;9.830;2023-02-15T08:23:07;0.40;;;0.40;;
21634;SDS011;10979;48.306;9.830;2023-02-15T08:25:33;0.50;;;0.50;;
21634;SDS011;10979;48.306;9.830;2023-02-15T08:27:58;0.40;;;0.40;;
21634;SDS011;10979;48.306;9.830;2023-02-15T08:30:24;0.40;;;0.40;;
21634;SDS011;10979;48.306;9.830;2023-02-15T08:32:49;0.40;;;0.40;;
21634;SDS011;10979;48.306;9.830;2023-02-15T08:35:15;0.50;;;0.50;;
21634;SDS011;10979;48.306;9.830;2023-02-15T08:37:41;0.40;;;0.40;;
21634;SDS011;10979;48.306;9.830;2023-02-15T08:40:06;0.40;;;0.40;;
21634;SDS011;10979;48.306;9.830;2023-02-15T08:42:33;0.40;;;0.40;;
21634;SDS011;10979;48.306;9.830;2023-02-15T08:44:59;0.40;;;0.40;;
21634;SDS011;10979;48.306;9.830;2023-02-15T08:47:24;0.40;;;0.40;;
21634;SDS011;10979;48.306;9.830;2023-02-15T08:49:50;0.40;;;0.40;;
21634;SDS011;10979;48.306;9.830;2023-02-15T08:52:16;0.40;;;0.40;;
21634;SDS011;10979;48.306;9.830;2023-02-15T08:54:41;0.40;;;0.40;;
21634;SDS011;10979;48.306;9.830;2023-02-15T08:57:07;0.40;;;0.40;;
21634;SDS011;10979;48.306;9.830;2023-02-15T08:59:33;0.40;;;0.40;;
21634;SDS011;10979;48.306;9.830;2023-02-15T09:01:58;0.50;;;0.50;;
21634;SDS011;10979;48.306;9.830;2023-02-15T09:04:25;0.40;;;0.40;;
21634;SDS011;10979;48.306;9.830;2023-02-15T09:06:51;0.40;;;0.40;;
21634;SDS011;10979;48.306;9.830;2023-02-15T09:09:17;0.40;;;0.40;;
21634;SDS011;10979;48.306;9.830;2023-02-15T09:11:44;0.50;;;0.50;;
21634;SDS011;10979;48.306;9.830;2023-02-15T09:14:13;0.40;;;0.40;;
21634;SDS011;10979;48.306;9.830;2023-02-15T09:16:41;0.40;;;0.40;;
21634;SDS011;10979;48.306;9.830;2023-02-15T09:19:11;0.40;;;0.40;;
21634;SDS011;10979;48.306;9.830;2023-02-15T09:21:37;0.40;;;0.40;;
21634;SDS011;10979;48.306;9.830;2023-02-15T09:24:04;0.40;;;0.40;;
21634;SDS011;10979;48.306;9.830;2023-02-15T09:26:33;0.40;;;0.40;;
21634;SDS011;10979;48.306;9.830;2023-02-15T09:29:02;0.40;;;0.40;;
21634;SDS011;10979;48.306;9.830;2023-02-15T09:31:32;0.40;;;0.40;;
21634;SDS011;10979;48.306;9.830;2023-02-15T09:34:01;0.40;;;0.40;;
21634;SDS011;10979;48.306;9.830;2023-02-15T09:36:34;0.40;;;0.40;;
21634;SDS011;10979;48.306;9.830;2023-02-15T09:39:11;0.40;;;0.40;;
21634;SDS011;10979;48.306;9.830;2023-02-15T09:41:50;0.40;;;0.40;;
21634;SDS011;10979;48.306;9.830;2023-02-15T09:47:19;0.40;;;0.40;;
21634;SDS011;10979;48.306;9.830;2023-02-15T09:53:19;0.40;;;0.40;;
21634;SDS011;10979;48.306;9.830;2023-02-15T09:55:55;0.40;;;0.40;;
21634;SDS011;10979;48.306;9.830;2023-02-15T10:06:43;0.35;;;0.35;;
21634;SDS011;10979;48.306;9.830;2023-02-15T10:20:45;0.40;;;0.40;;
21634;SDS011;10979;48.306;9.830;2023-02-15T10:26:01;0.30;;;0.30;;
21634;SDS011;10979;48.306;9.830;2023-02-15T10:28:57;0.38;;;0.38;;
21634;SDS011;10979;48.306;9.830;2023-02-15T10:45:23;0.30;;;0.30;;
21634;SDS011;10979;48.306;9.830;2023-02-15T10:50:59;0.30;;;0.30;;
21634;SDS011;10979;48.306;9.830;2023-02-15T11:01:55;0.30;;;0.30;;
21634;SDS011;10979;48.306;9.830;2023-02-15T11:04:35;0.30;;;0.30;;
21634;SDS011;10979;48.306;9.830;2023-02-15T11:07:06;0.30;;;0.30;;
21634;SDS011;10979;48.306;9.830;2023-02-15T11:09:49;0.30;;;0.30;;
21634;SDS011;10979;48.306;9.830;2023-02-15T11:12:21;0.30;;;0.30;;
21634;SDS011;10979;48.306;9.830;2023-02-15T11:14:58;0.30;;;0.30;;
21634;SDS011;10979;48.306;9.830;2023-02-15T11:17:37;0.30;;;0.30;;
21634;SDS011;10979;48.306;9.830;2023-02-15T11:22:42;0.30;;;0.30;;
21634;SDS011;10979;48.306;9.830;2023-02-15T11:28:11;0.30;;;0.30;;
21634;SDS011;10979;48.306;9.830;2023-02-15T11:30:45;0.30;;;0.30;;
21634;SDS011;10979;48.306;9.830;2023-02-15T11:33:37;0.30;;;0.30;;
21634;SDS011;10979;48.306;9.830;2023-02-15T11:36:19;0.30;;;0.30;;
21634;SDS011;10979;48.306;9.830;2023-02-15T11:38:49;0.30;;;0.30;;
21634;SDS011;10979;48.306;9.830;2023-02-15T11:41:22;0.30;;;0.30;;
21634;SDS011;10979;48.306;9.830;2023-02-15T11:44:01;0.30;;;0.30;;
21634;SDS011;10979;48.306;9.830;2023-02-15T11:46:38;0.30;;;0.30;;
21634;SDS011;10979;48.306;9.830;2023-02-15T11:49:09;0.30;;;0.30;;
21634;SDS011;10979;48.306;9.830;2023-02-15T11:51:47;0.30;;;0.30;;
21634;SDS011;10979;48.306;9.830;2023-02-15T11:54:15;0.30;;;0.30;;
21634;SDS011;10979;48.306;9.830;2023-02-15T11:56:46;0.30;;;0.30;;
21634;SDS011;10979;48.306;9.830;2023-02-15T11:59:14;0.30;;;0.30;;
21634;SDS011;10979;48.306;9.830;2023-02-15T12:01:49;0.30;;;0.30;;
21634;SDS011;10979;48.306;9.830;2023-02-15T12:04:20;0.30;;;0.30;;
21634;SDS011;10979;48.306;9.830;2023-02-15T12:06:54;0.30;;;0.30;;
21634;SDS011;10979;48.306;9.830;2023-02-15T12:12:21;0.30;;;0.30;;
21634;SDS011;10979;48.306;9.830;2023-02-15T12:14:50;0.20;;;0.20;;
21634;SDS011;10979;48.306;9.830;2023-02-15T12:17:20;0.30;;;0.30;;
21634;SDS011;10979;48.306;9.830;2023-02-15T12:19:49;0.30;;;0.30;;
21634;SDS011;10979;48.306;9.830;2023-02-15T12:25:02;0.30;;;0.30;;
21634;SDS011;10979;48.306;9.830;2023-02-15T12:27:44;0.30;;;0.30;;
21634;SDS011;10979;48.306;9.830;2023-02-15T12:33:13;0.30;;;0.30;;
21634;SDS011;10979;48.306;9.830;2023-02-15T12:35:50;0.30;;;0.30;;
21634;SDS011;10979;48.306;9.830;2023-02-15T12:38:23;0.30;;;0.30;;
21634;SDS011;10979;48.306;9.830;2023-02-15T12:41:24;0.30;;;0.30;;
21634;SDS011;10979;48.306;9.830;2023-02-15T12:44:02;0.30;;;0.30;;
21634;SDS011;10979;48.306;9.830;2023-02-15T12:46:40;0.30;;;0.30;;
21634;SDS011;10979;48.306;9.830;2023-02-15T12:51:44;0.30;;;0.30;;
21634;SDS011;10979;48.306;9.830;2023-02-15T12:56:50;0.30;;;0.30;;
21634;SDS011;10979;48.306;9.830;2023-02-15T12:59:16;0.30;;;0.30;;
21634;SDS011;10979;48.306;9.830;2023-02-15T13:01:45;0.30;;;0.30;;
21634;SDS011;10979;48.306;9.830;2023-02-15T13:04:25;0.30;;;0.30;;
21634;SDS011;10979;48.306;9.830;2023-02-15T13:06:54;0.30;;;0.30;;
21634;SDS011;10979;48.306;9.830;2023-02-15T13:09:33;0.30;;;0.30;;
21634;SDS011;10979;48.306;9.830;2023-02-15T13:12:10;0.30;;;0.30;;
21634;SDS011;10979;48.306;9.830;2023-02-15T13:14:45;0.30;;;0.30;;
21634;SDS011;10979;48.306;9.830;2023-02-15T13:17:13;0.30;;;0.30;;
21634;SDS011;10979;48.306;9.830;2023-02-15T13:19:43;0.30;;;0.30;;
21634;SDS011;10979;48.306;9.830;2023-02-15T13:22:13;0.30;;;0.30;;
21634;SDS011;10979;48.306;9.830;2023-02-15T13:24:48;0.30;;;0.30;;
21634;SDS011;10979;48.306;9.830;2023-02-15T13:27:18;0.30;;;0.30;;
21634;SDS011;10979;48.306;9.830;2023-02-15T13:29:49;0.30;;;0.30;;
21634;SDS011;10979;48.306;9.830;2023-02-15T13:32:34;0.30;;;0.30;;
21634;SDS011;10979;48.306;9.830;2023-02-15T13:35:03;0.30;;;0.30;;
21634;SDS011;10979;48.306;9.830;2023-02-15T13:40:33;0.30;;;0.30;;
21634;SDS011;10979;48.306;9.830;2023-02-15T13:43:10;0.30;;;0.30;;
21634;SDS011;10979;48.306;9.830;2023-02-15T13:45:57;0.30;;;0.30;;
21634;SDS011;10979;48.306;9.830;2023-02-15T13:54:48;0.30;;;0.30;;
21634;SDS011;10979;48.306;9.830;2023-02-15T14:00:38;0.30;;;0.30;;
21634;SDS011;10979;48.306;9.830;2023-02-15T14:03:31;0.30;;;0.30;;
21634;SDS011;10979;48.306;9.830;2023-02-15T14:06:32;0.30;;;0.30;;
21634;SDS011;10979;48.306;9.830;2023-02-15T14:09:04;0.30;;;0.30;;
21634;SDS011;10979;48.306;9.830;2023-02-15T14:14:11;0.30;;;0.30;;
21634;SDS011;10979;48.306;9.830;2023-02-15T14:22:54;0.20;;;0.20;;
21634;SDS011;10979;48.306;9.830;2023-02-15T14:25:48;0.30;;;0.30;;
21634;SDS011;10979;48.306;9.830;2023-02-15T14:28:25;0.30;;;0.30;;
21634;SDS011;10979;48.306;9.830;2023-02-15T14:30:56;0.20;;;0.20;;
21634;SDS011;10979;48.306;9.830;2023-02-15T14:36:03;0.22;;;0.22;;
21634;SDS011;10979;48.306;9.830;2023-02-15T14:49:38;0.30;;;0.30;;
21634;SDS011;10979;48.306;9.830;2023-02-15T14:52:06;0.20;;;0.20;;
21634;SDS011;10979;48.306;9.830;2023-02-15T15:02:27;0.30;;;0.30;;
21634;SDS011;10979;48.306;9.830;2023-02-15T15:05:20;0.20;;;0.20;;
21634;SDS011;10979;48.306;9.830;2023-02-15T15:07:55;0.28;;;0.28;;
21634;SDS011;10979;48.306;9.830;2023-02-15T15:12:57;0.20;;;0.20;;
21634;SDS011;10979;48.306;9.830;2023-02-15T15:17:56;0.20;;;0.20;;
21634;SDS011;10979;48.306;9.830;2023-02-15T15:23:42;0.30;;;0.30;;
21634;SDS011;10979;48.306;9.830;2023-02-15T15:26:22;0.30;;;0.30;;
21634;SDS011;10979;48.306;9.830;2023-02-15T15:28:53;0.20;;;0.20;;
21634;SDS011;10979;48.306;9.830;2023-02-15T15:31:35;0.20;;;0.20;;
21634;SDS011;10979;48.306;9.830;2023-02-15T15:42:12;0.20;;;0.20;;
21634;SDS011;10979;48.306;9.830;2023-02-15T15:45:14;0.20;;;0.20;;
21634;SDS011;10979;48.306;9.830;2023-02-15T15:48:12;0.30;;;0.30;;
21634;SDS011;10979;48.306;9.830;2023-02-15T15:50:59;0.30;;;0.30;;
21634;SDS011;10979;48.306;9.830;2023-02-15T15:53:29;0.20;;;0.20;;
21634;SDS011;10979;48.306;9.830;2023-02-15T15:56:03;0.20;;;0.20;;
21634;SDS011;10979;48.306;9.830;2023-02-15T15:58:31;0.30;;;0.30;;
21634;SDS011;10979;48.306;9.830;2023-02-15T16:01:08;0.20;;;0.20;;
21634;SDS011;10979;48.306;9.830;2023-02-15T16:03:36;0.22;;;0.22;;
21634;SDS011;10979;48.306;9.830;2023-02-15T16:06:02;0.30;;;0.30;;
21634;SDS011;10979;48.306;9.830;2023-02-15T16:08:37;0.30;;;0.30;;
21634;SDS011;10979;48.306;9.830;2023-02-15T16:11:10;0.30;;;0.30;;
21634;SDS011;10979;48.306;9.830;2023-02-15T16:13:44;0.30;;;0.30;;
21634;SDS011;10979;48.306;9.830;2023-02-15T16:16:11;0.30;;;0.30;;
21634;SDS011;10979;48.306;9.830;2023-02-15T16:18:38;0.30;;;0.30;;
21634;SDS011;10979;48.306;9.830;2023-02-15T16:21:12;0.30;;;0.30;;
21634;SDS011;10979;48.306;9.830;2023-02-15T16:23:48;0.30;;;0.30;;
21634;SDS011;10979;48.306;9.830;2023-02-15T16:29:17;0.30;;;0.30;;
21634;SDS011;10979;48.306;9.830;2023-02-15T16:32:00;0.30;;;0.30;;
21634;SDS011;10979;48.306;9.830;2023-02-15T16:34:26;0.30;;;0.30;;
21634;SDS011;10979;48.306;9.830;2023-02-15T16:37:11;0.30;;;0.30;;
21634;SDS011;10979;48.306;9.830;2023-02-15T16:39:41;0.30;;;0.30;;
21634;SDS011;10979;48.306;9.830;2023-02-15T16:42:08;0.30;;;0.30;;
21634;SDS011;10979;48.306;9.830;2023-02-15T16:44:36;0.30;;;0.30;;
21634;SDS011;10979;48.306;9.830;2023-02-15T16:47:02;0.30;;;0.30;;
21634;SDS011;10979;48.306;9.830;2023-02-15T16:49:28;0.30;;;0.30;;
21634;SDS011;10979;48.306;9.830;2023-02-15T16:51:56;0.30;;;0.30;;
21634;SDS011;10979;48.306;9.830;2023-02-15T16:54:25;0.30;;;0.30;;
21634;SDS011;10979;48.306;9.830;2023-02-15T16:56:53;0.30;;;0.30;;
21634;SDS011;10979;48.306;9.830;2023-02-15T17:01:53;0.40;;;0.40;;
21634;SDS011;10979;48.306;9.830;2023-02-15T17:09:56;0.40;;;0.40;;
21634;SDS011;10979;48.306;9.830;2023-02-15T17:18:00;0.40;;;0.40;;
21634;SDS011;10979;48.306;9.830;2023-02-15T17:20:27;0.30;;;0.30;;
21634;SDS011;10979;48.306;9.830;2023-02-15T17:22:53;0.30;;;0.30;;
21634;SDS011;10979;48.306;9.830;2023-02-15T17:25:20;0.30;;;0.30;;
21634;SDS011;10979;48.306;9.830;2023-02-15T17:27:53;0.30;;;0.30;;
21634;SDS011;10979;48.306;9.830;2023-02-15T17:30:28;0.30;;;0.30;;
21634;SDS011;10979;48.306;9.830;2023-02-15T17:32:58;0.40;;;0.40;;
21634;SDS011;10979;48.306;9.830;2023-02-15T17:35:30;0.40;;;0.40;;
21634;SDS011;10979;48.306;9.830;2023-02-15T17:38:03;0.30;;;0.30;;
21634;SDS011;10979;48.306;9.830;2023-02-15T17:40:41;0.40;;;0.40;;
21634;SDS011;10979;48.306;9.830;2023-02-15T17:43:07;0.40;;;0.40;;
21634;SDS011;10979;48.306;9.830;2023-02-15T17:45:38;0.40;;;0.40;;
21634;SDS011;10979;48.306;9.830;2023-02-15T17:48:15;0.35;;;0.35;;
21634;SDS011;10979;48.306;9.830;2023-02-15T17:50:43;0.40;;;0.40;;
21634;SDS011;10979;48.306;9.830;2023-02-15T17:53:09;0.40;;;0.40;;
21634;SDS011;10979;48.306;9.830;2023-02-15T17:55:35;0.30;;;0.30;;